CDT,Max TemperatureF,Mean TemperatureF,Min TemperatureF,Max Dew PointF,MeanDew PointF,Min DewpointF,Max Humidity, Mean Humidity, Min Humidity, Max Sea Level PressureIn, Mean Sea Level PressureIn, Min Sea Level PressureIn, Max VisibilityMiles, Mean VisibilityMiles, Min VisibilityMiles, Max Wind SpeedMPH, Mean Wind SpeedMPH, Max Gust SpeedMPH,PrecipitationIn, CloudCover, Events, WindDirDegrees
2013-9-1,87,74,60,70,61,52,90,60,30,30.01,29.91,29.75,10,10,10,23,12,33,T,2,,6
2013-9-2,83,69,54,58,54,50,93,65,37,30.11,30.05,30.02,10,10,10,14,5,18,0.00,0,,14
2013-9-3,86,68,50,60,55,49,96,68,40,30.10,30.05,30.01,10,10,10,14,6,18,0.00,0,,184
2013-9-4,88,73,58,62,59,56,84,60,36,30.16,30.09,30.04,10,10,10,17,7,22,0.00,0,,165
2013-9-5,90,79,67,62,60,59,81,60,39,30.17,30.12,30.07,10,10,10,15,8,21,T,2,,151
2013-9-6,96,81,65,67,63,60,81,60,39,30.07,29.98,29.88,10,10,10,23,12,28,0.00,0,,171
2013-9-7,95,83,71,70,66,63,87,62,36,29.90,29.88,29.85,10,10,7,18,8,22,0.00,0,,177
2013-9-8,97,83,68,73,68,64,97,68,38,29.91,29.84,29.76,10,7,2,13,6,16,0.00,0,,87
2013-9-9,100,87,74,63,59,53,64,43,22,29.82,29.78,29.74,10,10,10,26,14,33,0.00,0,,201
2013-9-10,99,86,72,70,63,56,87,58,28,30.05,29.92,29.83,10,9,2,23,10,31,0.62,4,Rain-Thunderstorm,232
2013-9-11,83,76,69,70,69,67,97,81,65,30.16,30.08,30.03,10,9,2,13,5,16,0.54,5,Rain-Thunderstorm,199
2013-9-12,82,69,56,67,57,50,93,64,35,30.22,30.17,30.11,10,10,4,17,7,22,0.00,1,,22
2013-9-13,77,63,49,52,49,47,93,65,36,30.24,30.16,30.08,10,10,10,24,4,31,0.00,0,,84
2013-9-14,78,67,55,58,52,49,86,63,40,30.07,29.98,29.86,10,10,10,21,10,26,0.00,1,,167
2013-9-15,70,66,61,66,60,53,93,80,66,30.24,30.00,29.84,10,9,1,23,11,30,0.19,7,Rain-Thunderstorm,360
2013-9-16,65,59,53,56,53,50,93,80,67,30.33,30.25,30.19,10,10,8,17,9,23,0.04,7,Rain,104
2013-9-17,78,68,58,67,61,57,97,81,64,30.19,30.04,29.86,10,6,2,20,10,24,0.09,7,Rain-Thunderstorm,163
2013-9-18,91,79,67,67,66,63,93,69,44,29.85,29.74,29.66,10,9,6,28,15,36,0.00,1,,183
2013-9-19,81,69,57,65,60,49,87,68,49,30.03,29.82,29.69,10,9,3,28,10,35,0.27,3,Rain-Thunderstorm,303
2013-9-20,73,60,47,52,45,41,86,60,34,30.12,30.05,29.99,10,10,10,21,7,28,0.00,0,,319
2013-9-21,80,61,42,54,48,40,93,65,37,30.04,29.96,29.85,10,10,10,15,7,21,0.00,0,,154
2013-9-22,82,67,51,53,50,47,96,64,32,29.89,29.83,29.78,10,10,10,28,14,35,0.00,0,,173
2013-9-23,79,66,53,52,49,48,77,56,35,29.82,29.75,29.67,10,10,10,31,18,40,0.00,1,,152
2013-9-24,71,62,52,55,54,50,96,77,58,29.92,29.82,29.65,10,10,8,21,9,26,0.00,4,,356
2013-9-25,80,64,47,59,52,46,96,72,48,29.93,29.87,29.73,10,6,0,22,10,28,0.00,1,Fog,103
2013-9-26,90,77,63,60,57,55,84,58,32,29.76,29.73,29.68,10,10,10,31,18,43,0.00,0,,152
2013-9-27,90,80,69,60,58,56,66,51,36,29.81,29.76,29.68,10,10,10,32,21,41,0.00,0,Thunderstorm,166
2013-9-28,76,62,47,64,49,38,89,60,31,30.09,29.88,29.65,10,9,2,28,11,38,0.24,4,Rain-Thunderstorm,296
2013-9-29,78,61,43,45,42,40,89,58,26,30.09,29.99,29.88,10,10,10,22,10,31,0.00,0,,182
2013-9-30,82,66,49,52,48,45,86,57,28,29.88,29.79,29.70,10,10,10,23,12,29,0.00,0,,191